Time;durP1;ratioP1;P1;durP2;ratioP2;P2;SDS_P1;SDS_P2;PMS_P1;PMS_P2;Temp;Humidity;BMP_temperature;BMP_pressure;BME280_temperature;BME280_humidity;BME280_pressure;Samples;Min_cycle;Max_cycle;Signal;HPM_P1;HPM_P2
2023/03/13 00:01:00;;;;;;;8.10;3.47;;;8.90;99.90;;;;;;5034159;28;20084;-37
2023/03/13 00:03:27;;;;;;;8.25;3.15;;;8.90;99.90;;;;;;5034606;28;20083;-38
2023/03/13 00:05:58;;;;;;;8.95;3.13;;;8.90;99.90;;;;;;5033739;28;20036;-36
2023/03/13 00:08:27;;;;;;;7.70;3.25;;;8.90;99.90;;;;;;5034135;28;20084;-35
2023/03/13 00:10:53;;;;;;;9.80;3.85;;;9.00;99.90;;;;;;5034010;28;20034;-36
2023/03/13 00:13:18;;;;;;;10.38;3.67;;;8.90;99.90;;;;;;5033861;28;20037;-39
2023/03/13 00:15:44;;;;;;;12.50;4.20;;;8.90;99.90;;;;;;5033834;28;20526;-39
2023/03/13 00:18:09;;;;;;;8.43;3.88;;;8.90;99.90;;;;;;5034247;28;20053;-35
2023/03/13 00:20:35;;;;;;;8.82;4.13;;;8.90;99.90;;;;;;5033824;28;20025;-36
2023/03/13 00:23:01;;;;;;;8.60;3.78;;;8.90;99.90;;;;;;5033672;28;20021;-37
2023/03/13 00:25:26;;;;;;;11.57;4.82;;;9.00;99.90;;;;;;5033593;28;20037;-39
2023/03/13 00:27:52;;;;;;;11.30;4.40;;;8.90;99.90;;;;;;5033523;28;20033;-35
2023/03/13 00:30:18;;;;;;;8.95;3.85;;;8.90;99.90;;;;;;5033795;28;20021;-38
2023/03/13 00:32:45;;;;;;;10.27;4.28;;;8.90;99.90;;;;;;5033514;28;20032;-37
2023/03/13 00:35:12;;;;;;;11.50;4.63;;;8.90;99.90;;;;;;5033596;28;20100;-35
2023/03/13 00:37:37;;;;;;;9.02;4.10;;;8.90;99.90;;;;;;5033397;28;20025;-39
2023/03/13 00:40:04;;;;;;;10.27;4.05;;;8.90;99.90;;;;;;5033504;28;20025;-36
2023/03/13 00:42:30;;;;;;;8.82;3.53;;;8.90;99.90;;;;;;5032470;28;20033;-37
2023/03/13 00:44:56;;;;;;;9.05;3.63;;;8.90;99.90;;;;;;5033314;28;20036;-37
2023/03/13 00:47:21;;;;;;;10.73;4.55;;;8.90;99.90;;;;;;5033090;28;20109;-35
2023/03/13 00:49:47;;;;;;;11.63;4.68;;;8.90;99.90;;;;;;5033169;28;20399;-35
2023/03/13 00:52:13;;;;;;;8.15;4.15;;;8.90;99.90;;;;;;5033124;28;20025;-35
2023/03/13 00:54:38;;;;;;;10.77;3.92;;;8.90;99.90;;;;;;5033442;28;20040;-35
2023/03/13 00:57:04;;;;;;;9.15;3.78;;;8.90;99.90;;;;;;5048768;28;20021;-35
2023/03/13 00:59:29;;;;;;;8.82;4.00;;;8.90;99.90;;;;;;5033306;28;20416;-45
2023/03/13 01:01:55;;;;;;;8.77;3.97;;;8.90;99.90;;;;;;5033184;28;20037;-36
2023/03/13 01:04:21;;;;;;;7.93;3.95;;;8.90;99.90;;;;;;5033013;28;20033;-44
2023/03/13 01:06:46;;;;;;;12.27;4.35;;;8.90;99.90;;;;;;5033405;28;20388;-37
2023/03/13 01:09:14;;;;;;;10.88;3.72;;;8.90;99.90;;;;;;5034731;28;20040;-42
2023/03/13 01:11:41;;;;;;;7.22;3.70;;;8.90;99.90;;;;;;5033926;28;20044;-35
2023/03/13 01:14:13;;;;;;;9.00;3.78;;;8.80;99.90;;;;;;5035087;28;20032;-38
2023/03/13 01:16:39;;;;;;;7.88;3.97;;;8.90;99.90;;;;;;5037449;28;20060;-38
2023/03/13 01:19:08;;;;;;;6.40;3.17;;;8.80;99.90;;;;;;5033760;28;20037;-37
2023/03/13 01:21:34;;;;;;;10.18;4.43;;;8.80;99.90;;;;;;5034294;28;20026;-39
2023/03/13 01:24:00;;;;;;;10.27;3.78;;;8.80;99.90;;;;;;5031917;28;20025;-39
2023/03/13 01:26:26;;;;;;;7.20;4.00;;;8.90;99.90;;;;;;5032215;28;20022;-39
2023/03/13 01:28:52;;;;;;;7.78;3.50;;;8.90;99.90;;;;;;5032550;28;20075;-35
2023/03/13 01:31:29;;;;;;;6.88;3.22;;;8.90;99.90;;;;;;5032560;28;20026;-36
2023/03/13 01:33:57;;;;;;;9.05;3.47;;;8.80;99.90;;;;;;5032400;28;20061;-38
2023/03/13 01:36:24;;;;;;;5.90;3.42;;;8.90;99.90;;;;;;5033565;28;20026;-38
2023/03/13 01:38:51;;;;;;;6.05;3.33;;;8.90;99.90;;;;;;5032795;28;20040;-40
2023/03/13 01:41:18;;;;;;;9.40;3.55;;;8.90;99.90;;;;;;5033155;28;20028;-35
2023/03/13 01:43:45;;;;;;;7.05;3.28;;;8.90;99.90;;;;;;5032849;28;20029;-37
2023/03/13 01:46:17;;;;;;;6.93;2.97;;;8.90;99.90;;;;;;5031877;28;20033;-37
2023/03/13 01:49:11;;;;;;;7.25;3.30;;;8.90;99.90;;;;;;5032266;28;20067;-37
2023/03/13 01:51:39;;;;;;;7.47;3.65;;;8.90;99.90;;;;;;5032991;28;20022;-36
2023/03/13 01:54:28;;;;;;;7.35;3.38;;;8.80;99.90;;;;;;5033421;28;20075;-36
2023/03/13 01:57:12;;;;;;;8.45;3.85;;;8.90;99.90;;;;;;5032020;28;20148;-35
2023/03/13 01:59:57;;;;;;;7.30;3.00;;;8.80;99.90;;;;;;5032112;28;20032;-35
2023/03/13 02:02:24;;;;;;;7.75;2.72;;;8.90;99.90;;;;;;5031807;28;20026;-37
2023/03/13 02:04:55;;;;;;;6.05;3.00;;;8.90;99.90;;;;;;5031832;28;20033;-38
2023/03/13 02:07:45;;;;;;;6.35;2.80;;;8.90;99.90;;;;;;5032479;28;20100;-37
2023/03/13 02:10:12;;;;;;;6.82;2.85;;;8.90;99.90;;;;;;5032258;28;20040;-41
2023/03/13 02:12:39;;;;;;;6.88;3.03;;;9.00;99.90;;;;;;5032169;28;20053;-36
2023/03/13 02:15:09;;;;;;;8.00;2.80;;;8.90;99.90;;;;;;5032342;28;20171;-35
2023/03/13 02:17:36;;;;;;;6.05;2.78;;;8.90;99.90;;;;;;5031492;28;20026;-39
2023/03/13 02:20:02;;;;;;;10.35;3.17;;;8.90;99.90;;;;;;5031896;28;20056;-36
2023/03/13 02:22:39;;;;;;;5.20;2.55;;;8.90;99.90;;;;;;5031591;28;20110;-37
2023/03/13 02:25:11;;;;;;;6.05;2.72;;;8.90;99.90;;;;;;5031964;28;20029;-43
2023/03/13 02:27:37;;;;;;;5.65;2.72;;;8.90;99.90;;;;;;5031076;28;20558;-39
2023/03/13 02:30:06;;;;;;;5.20;2.67;;;8.90;99.90;;;;;;5031606;28;20104;-35
2023/03/13 02:32:32;;;;;;;5.95;2.80;;;8.90;99.90;;;;;;5031241;28;20105;-37
2023/03/13 02:35:03;;;;;;;6.45;2.95;;;8.90;99.90;;;;;;5030802;28;20109;-35
2023/03/13 02:37:30;;;;;;;6.65;2.80;;;8.90;99.90;;;;;;5032145;28;20040;-36
2023/03/13 02:39:59;;;;;;;5.68;2.80;;;8.90;99.90;;;;;;5047298;28;20118;-38
2023/03/13 02:42:27;;;;;;;4.65;2.63;;;8.90;99.90;;;;;;5032354;28;20099;-37
2023/03/13 02:44:53;;;;;;;5.25;2.55;;;8.90;99.90;;;;;;5032404;28;20026;-38
2023/03/13 02:47:24;;;;;;;6.28;2.90;;;8.90;99.90;;;;;;5032237;28;20033;-36
2023/03/13 02:49:50;;;;;;;6.63;2.90;;;8.90;99.90;;;;;;5031500;28;20037;-37
2023/03/13 02:52:29;;;;;;;7.07;2.55;;;8.90;99.90;;;;;;5031166;28;20028;-41
2023/03/13 02:55:00;;;;;;;7.20;2.88;;;8.90;99.90;;;;;;5046827;28;20032;-36
2023/03/13 02:57:26;;;;;;;5.80;2.50;;;8.90;99.90;;;;;;5031423;28;20410;-35
2023/03/13 02:59:52;;;;;;;5.22;2.35;;;8.90;99.90;;;;;;5031635;28;20028;-38
2023/03/13 03:02:18;;;;;;;4.43;2.30;;;8.90;99.90;;;;;;5032137;28;20033;-36
2023/03/13 03:04:43;;;;;;;4.60;2.50;;;8.90;99.90;;;;;;5031298;28;20029;-36
2023/03/13 03:07:09;;;;;;;5.30;2.17;;;8.90;99.90;;;;;;5030894;28;20032;-37
2023/03/13 03:09:34;;;;;;;7.93;2.65;;;8.90;99.90;;;;;;5031316;28;20021;-35
2023/03/13 03:12:00;;;;;;;4.18;2.15;;;8.90;99.90;;;;;;5031350;28;20431;-35
2023/03/13 03:14:26;;;;;;;5.35;2.22;;;8.90;99.90;;;;;;5031524;28;20088;-35
2023/03/13 03:16:51;;;;;;;6.00;2.40;;;8.90;99.90;;;;;;5031010;28;20030;-37
2023/03/13 03:19:17;;;;;;;3.83;1.85;;;8.90;99.90;;;;;;5031131;28;20061;-39
2023/03/13 03:21:43;;;;;;;4.30;2.28;;;8.90;99.90;;;;;;5031972;28;20079;-35
2023/03/13 03:24:08;;;;;;;5.45;2.22;;;8.90;99.90;;;;;;5031074;28;20046;-35
2023/03/13 03:26:34;;;;;;;4.75;2.10;;;8.90;99.90;;;;;;5030626;28;20388;-35
2023/03/13 03:29:00;;;;;;;5.45;2.15;;;8.90;99.90;;;;;;5031035;28;20029;-37
2023/03/13 03:31:25;;;;;;;4.15;1.98;;;8.90;99.90;;;;;;5031354;28;20029;-41
2023/03/13 03:33:51;;;;;;;5.20;2.40;;;8.90;99.90;;;;;;5031322;28;20029;-35
2023/03/13 03:36:19;;;;;;;5.85;2.67;;;8.90;99.90;;;;;;5030939;28;20503;-36
2023/03/13 03:38:45;;;;;;;3.78;2.03;;;8.90;99.90;;;;;;5031431;28;20036;-36
2023/03/13 03:41:15;;;;;;;4.57;2.38;;;8.90;99.90;;;;;;5031133;28;20026;-38
2023/03/13 03:43:41;;;;;;;4.50;2.00;;;8.90;99.90;;;;;;5030860;28;20112;-37
2023/03/13 03:46:06;;;;;;;4.07;2.00;;;8.90;99.90;;;;;;5031378;28;20159;-37
2023/03/13 03:48:32;;;;;;;2.90;1.85;;;8.90;99.90;;;;;;5034471;28;20036;-42
2023/03/13 03:50:58;;;;;;;3.58;1.92;;;8.90;99.90;;;;;;5034790;28;20029;-37
2023/03/13 03:53:24;;;;;;;4.88;1.83;;;8.90;99.90;;;;;;5034242;28;20017;-44
2023/03/13 03:55:50;;;;;;;3.53;1.70;;;8.90;99.90;;;;;;5034268;28;20095;-37
2023/03/13 03:58:16;;;;;;;4.35;1.80;;;8.90;99.90;;;;;;5035403;28;20087;-40
2023/03/13 04:00:46;;;;;;;2.53;1.70;;;8.90;99.90;;;;;;5035373;28;20037;-37
2023/03/13 04:03:13;;;;;;;5.13;2.22;;;8.90;99.90;;;;;;5034792;28;20033;-38
2023/03/13 04:05:39;;;;;;;4.55;1.70;;;8.90;99.90;;;;;;5034357;28;20450;-35
2023/03/13 04:08:06;;;;;;;4.07;1.60;;;8.90;99.90;;;;;;5034556;28;20045;-41
2023/03/13 04:10:32;;;;;;;3.05;1.80;;;9.00;99.90;;;;;;5035374;28;20034;-37
2023/03/13 04:12:57;;;;;;;3.15;1.75;;;9.00;99.90;;;;;;5035016;28;20026;-36
2023/03/13 04:15:23;;;;;;;3.05;1.70;;;9.00;99.90;;;;;;5037178;28;20479;-40
2023/03/13 04:17:49;;;;;;;4.32;1.92;;;9.00;99.90;;;;;;5041418;28;20026;-38
2023/03/13 04:20:14;;;;;;;4.32;1.88;;;8.90;99.90;;;;;;5036051;28;20029;-39
2023/03/13 04:22:41;;;;;;;3.60;1.70;;;9.00;99.90;;;;;;5033729;28;20064;-35
2023/03/13 04:25:07;;;;;;;3.70;1.70;;;8.90;99.90;;;;;;5033653;28;20598;-35
2023/03/13 04:27:33;;;;;;;2.72;1.25;;;9.00;99.90;;;;;;5034083;28;20026;-39
2023/03/13 04:29:59;;;;;;;3.60;1.52;;;9.00;99.90;;;;;;5034318;28;20028;-39
2023/03/13 04:32:25;;;;;;;3.15;1.60;;;8.90;99.90;;;;;;5033356;28;20032;-43
2023/03/13 04:34:51;;;;;;;2.85;1.33;;;9.00;99.90;;;;;;5033991;28;20107;-35
2023/03/13 04:37:16;;;;;;;3.45;1.60;;;9.00;99.90;;;;;;5033979;28;20088;-36
2023/03/13 04:39:42;;;;;;;4.07;1.40;;;9.00;99.90;;;;;;5032429;28;20447;-35
2023/03/13 04:42:10;;;;;;;2.90;1.63;;;9.00;99.90;;;;;;5033369;28;20396;-36
2023/03/13 04:44:36;;;;;;;2.50;1.30;;;9.00;99.90;;;;;;5034138;28;20391;-37
2023/03/13 04:47:02;;;;;;;3.15;1.42;;;8.90;99.90;;;;;;5033051;28;20096;-39
2023/03/13 04:49:28;;;;;;;3.85;1.58;;;8.90;99.90;;;;;;5033715;28;20545;-35
2023/03/13 04:51:54;;;;;;;4.32;1.30;;;9.00;99.90;;;;;;5033513;28;20025;-35
2023/03/13 04:54:19;;;;;;;5.20;1.50;;;9.00;99.90;;;;;;5033136;28;20052;-38
2023/03/13 04:56:45;;;;;;;3.17;1.60;;;9.00;99.90;;;;;;5032939;28;20030;-36
2023/03/13 04:59:11;;;;;;;1.67;1.20;;;9.00;99.90;;;;;;5032787;28;20071;-35
2023/03/13 05:01:37;;;;;;;3.00;1.50;;;9.00;99.90;;;;;;5033396;28;20075;-40
2023/03/13 05:04:03;;;;;;;2.90;1.45;;;9.00;99.90;;;;;;5033326;28;20033;-35
2023/03/13 05:06:29;;;;;;;2.75;1.23;;;9.00;99.90;;;;;;5033844;28;20418;-37
2023/03/13 05:08:55;;;;;;;4.85;1.10;;;9.00;99.90;;;;;;5032994;28;20458;-39
2023/03/13 05:11:21;;;;;;;2.03;1.10;;;9.00;99.90;;;;;;5032950;28;20021;-35
2023/03/13 05:13:47;;;;;;;1.60;0.98;;;9.00;99.90;;;;;;5032779;28;20032;-39
2023/03/13 05:16:13;;;;;;;3.03;1.40;;;9.00;99.90;;;;;;5033341;28;20033;-36
2023/03/13 05:18:38;;;;;;;2.30;1.27;;;8.90;99.90;;;;;;5032843;28;20033;-37
2023/03/13 05:21:05;;;;;;;3.10;1.42;;;9.00;99.90;;;;;;5032639;28;20026;-38
2023/03/13 05:23:30;;;;;;;1.85;1.20;;;9.00;99.90;;;;;;5034224;28;20108;-39
2023/03/13 05:25:56;;;;;;;3.25;0.98;;;9.00;99.90;;;;;;5032980;28;20104;-37
2023/03/13 05:28:22;;;;;;;2.05;1.00;;;9.00;99.90;;;;;;5033119;28;20028;-37
2023/03/13 05:30:47;;;;;;;2.47;1.33;;;9.00;99.90;;;;;;5032583;28;20024;-35
2023/03/13 05:33:13;;;;;;;3.05;1.13;;;9.00;99.90;;;;;;5032598;28;20471;-35
2023/03/13 05:35:39;;;;;;;2.88;1.25;;;9.00;99.90;;;;;;5032481;28;20033;-37
2023/03/13 05:38:04;;;;;;;2.80;1.10;;;9.00;99.90;;;;;;5032721;28;20021;-40
2023/03/13 05:40:30;;;;;;;1.92;1.00;;;9.00;99.90;;;;;;5032527;28;20035;-35
2023/03/13 05:42:56;;;;;;;1.52;0.80;;;9.00;99.90;;;;;;5032373;28;20083;-35
2023/03/13 05:45:21;;;;;;;1.75;0.98;;;9.00;99.90;;;;;;5032182;28;20056;-35
2023/03/13 05:47:47;;;;;;;1.80;1.15;;;9.00;99.90;;;;;;5032456;28;20080;-38
2023/03/13 05:50:13;;;;;;;3.35;0.90;;;9.00;99.90;;;;;;5032245;28;20032;-35
2023/03/13 05:52:39;;;;;;;1.95;1.00;;;9.00;99.90;;;;;;5032092;28;20065;-35
2023/03/13 05:55:05;;;;;;;1.67;0.95;;;9.00;99.90;;;;;;5032077;28;20025;-34
2023/03/13 05:57:30;;;;;;;3.15;1.20;;;9.00;99.90;;;;;;5032144;28;20430;-35
2023/03/13 05:59:56;;;;;;;1.75;0.93;;;9.00;99.90;;;;;;5032750;28;20028;-40
2023/03/13 06:02:22;;;;;;;0.95;0.80;;;9.00;99.90;;;;;;5031927;28;20450;-35
2023/03/13 06:04:47;;;;;;;2.10;1.13;;;9.00;99.90;;;;;;5032176;28;20056;-38
2023/03/13 06:07:13;;;;;;;0.60;0.60;;;9.00;99.90;;;;;;5031667;28;20025;-38
2023/03/13 06:09:39;;;;;;;2.20;0.98;;;9.00;99.90;;;;;;5031692;28;20037;-35
2023/03/13 06:12:06;;;;;;;1.25;0.77;;;9.00;99.90;;;;;;5031757;28;20438;-39
2023/03/13 06:14:32;;;;;;;2.95;0.90;;;9.00;99.90;;;;;;5031968;28;20030;-39
2023/03/13 06:16:57;;;;;;;1.35;0.90;;;9.00;99.90;;;;;;5032197;28;20031;-35
2023/03/13 06:19:24;;;;;;;1.48;0.88;;;9.00;99.90;;;;;;5031807;28;20110;-38
2023/03/13 06:21:50;;;;;;;2.58;0.80;;;9.00;99.90;;;;;;5031684;28;20026;-35
2023/03/13 06:24:16;;;;;;;1.27;0.77;;;9.00;99.90;;;;;;5031506;28;20108;-38
2023/03/13 06:26:42;;;;;;;2.33;0.80;;;9.00;99.90;;;;;;5031439;28;20112;-43
2023/03/13 06:29:08;;;;;;;1.70;0.95;;;9.00;99.90;;;;;;5032056;28;20021;-37
2023/03/13 06:31:34;;;;;;;2.75;0.70;;;9.00;99.90;;;;;;5046576;28;20036;-38
2023/03/13 06:33:59;;;;;;;1.50;0.80;;;9.00;99.90;;;;;;5031513;28;20037;-38
2023/03/13 06:36:25;;;;;;;1.95;0.90;;;9.00;99.90;;;;;;5031563;28;20477;-41
2023/03/13 06:38:50;;;;;;;1.38;0.75;;;9.00;99.90;;;;;;5046922;28;20068;-45
2023/03/13 06:41:16;;;;;;;2.90;1.00;;;9.00;99.90;;;;;;5031360;28;20116;-42
2023/03/13 06:43:42;;;;;;;1.50;0.80;;;9.00;99.90;;;;;;5031702;28;20040;-42
2023/03/13 06:46:19;;;;;;;1.45;1.00;;;9.00;99.90;;;;;;5031221;28;20025;-39
2023/03/13 06:48:45;;;;;;;1.25;0.73;;;9.00;99.90;;;;;;5032115;28;20447;-37
2023/03/13 06:51:16;;;;;;;2.30;0.95;;;9.00;99.90;;;;;;5031762;28;20029;-36
2023/03/13 06:53:42;;;;;;;1.95;0.80;;;9.00;99.90;;;;;;5031495;28;20025;-36
2023/03/13 06:56:08;;;;;;;1.05;0.70;;;9.00;99.90;;;;;;5031083;28;20412;-37
2023/03/13 06:58:34;;;;;;;1.27;0.70;;;9.00;99.90;;;;;;5031472;28;20053;-37
2023/03/13 07:01:07;;;;;;;1.02;0.70;;;9.10;99.90;;;;;;5031312;28;20127;-37
2023/03/13 07:03:33;;;;;;;0.90;0.70;;;9.00;99.90;;;;;;5031422;28;20502;-36
2023/03/13 07:05:59;;;;;;;1.30;0.75;;;9.00;99.90;;;;;;5030782;28;20036;-35
2023/03/13 07:08:25;;;;;;;0.98;0.70;;;9.10;99.90;;;;;;5031341;28;20022;-36
2023/03/13 07:10:51;;;;;;;1.10;0.60;;;9.00;99.90;;;;;;5032142;28;20033;-38
2023/03/13 07:13:20;;;;;;;1.35;0.80;;;9.00;99.90;;;;;;5031927;28;20037;-37
2023/03/13 07:15:47;;;;;;;1.90;0.90;;;9.00;99.90;;;;;;5031597;28;20029;-35
2023/03/13 07:18:13;;;;;;;1.63;0.68;;;9.00;99.90;;;;;;5031890;28;20032;-38
2023/03/13 07:20:38;;;;;;;1.08;0.60;;;9.00;99.90;;;;;;5035547;28;20036;-35
2023/03/13 07:23:04;;;;;;;1.50;0.70;;;9.10;99.90;;;;;;5043030;28;20266;-37
2023/03/13 07:25:29;;;;;;;1.50;0.80;;;9.10;99.90;;;;;;5034929;28;20429;-36
2023/03/13 07:27:55;;;;;;;1.08;0.70;;;9.00;99.90;;;;;;5034900;28;20034;-38
2023/03/13 07:30:21;;;;;;;1.65;0.70;;;9.10;99.90;;;;;;5036317;28;20024;-39
2023/03/13 07:32:47;;;;;;;0.90;0.65;;;9.00;99.90;;;;;;5034749;28;20112;-38
2023/03/13 07:35:13;;;;;;;0.93;0.73;;;9.00;99.90;;;;;;5035042;28;20072;-38
2023/03/13 07:37:39;;;;;;;1.73;0.60;;;9.10;99.90;;;;;;5034359;28;20033;-37
2023/03/13 07:40:05;;;;;;;1.88;0.80;;;9.00;99.90;;;;;;5034672;28;20219;-39
2023/03/13 07:42:31;;;;;;;1.45;0.80;;;9.00;99.90;;;;;;5035619;28;20025;-35
2023/03/13 07:44:56;;;;;;;1.13;0.60;;;9.00;99.90;;;;;;5034954;28;20475;-38
2023/03/13 07:47:22;;;;;;;0.50;0.50;;;9.00;99.90;;;;;;5036193;28;20029;-40
2023/03/13 07:49:48;;;;;;;1.17;0.65;;;9.10;99.90;;;;;;5034519;28;20470;-36
2023/03/13 07:52:13;;;;;;;1.88;0.80;;;9.10;99.90;;;;;;5034594;28;20403;-38
2023/03/13 07:54:39;;;;;;;1.30;0.73;;;9.10;99.90;;;;;;5034982;28;20025;-36
2023/03/13 07:57:05;;;;;;;0.90;0.60;;;9.10;99.90;;;;;;5034405;28;20442;-39
2023/03/13 07:59:30;;;;;;;2.45;0.77;;;9.00;99.90;;;;;;5034498;28;20025;-36
2023/03/13 08:01:56;;;;;;;1.73;0.60;;;9.10;99.90;;;;;;5034057;28;20495;-35
2023/03/13 08:04:21;;;;;;;1.45;0.50;;;9.10;99.90;;;;;;5033911;28;20029;-35
2023/03/13 08:06:47;;;;;;;2.33;0.65;;;9.00;99.90;;;;;;5034234;28;20020;-40
2023/03/13 08:09:13;;;;;;;3.25;0.60;;;9.10;99.90;;;;;;5034033;28;20026;-36
2023/03/13 08:11:40;;;;;;;1.33;0.50;;;9.20;99.90;;;;;;5034017;28;20455;-37
2023/03/13 08:14:06;;;;;;;1.17;0.60;;;9.20;99.90;;;;;;5034031;28;20021;-36
2023/03/13 08:16:33;;;;;;;0.95;0.70;;;9.20;99.90;;;;;;5033657;28;20045;-39
2023/03/13 08:19:00;;;;;;;1.25;0.75;;;9.20;99.90;;;;;;5034798;28;20029;-40
2023/03/13 08:21:29;;;;;;;1.85;0.75;;;9.20;99.90;;;;;;5033840;28;20114;-43
2023/03/13 08:23:56;;;;;;;1.40;0.77;;;9.20;99.90;;;;;;5033706;28;20022;-39
2023/03/13 08:26:26;;;;;;;1.67;0.90;;;9.20;99.90;;;;;;5033381;28;20022;-40
2023/03/13 08:28:59;;;;;;;2.45;0.88;;;9.20;99.90;;;;;;5034355;28;20028;-39
2023/03/13 08:31:27;;;;;;;1.73;0.90;;;9.20;99.90;;;;;;5033781;28;20380;-36
2023/03/13 08:33:53;;;;;;;1.40;0.63;;;9.20;99.90;;;;;;5033403;28;20029;-36
2023/03/13 08:36:24;;;;;;;1.88;0.90;;;9.20;99.90;;;;;;5033280;28;20049;-42
2023/03/13 08:38:52;;;;;;;1.50;0.70;;;9.20;99.90;;;;;;5033506;28;20033;-39
2023/03/13 08:41:27;;;;;;;1.83;0.70;;;9.20;99.90;;;;;;5033397;28;20033;-36
2023/03/13 08:43:54;;;;;;;1.35;0.55;;;9.20;99.90;;;;;;5033485;28;20071;-39
2023/03/13 08:46:20;;;;;;;1.40;0.70;;;9.20;99.90;;;;;;5032938;28;20113;-38
2023/03/13 08:48:50;;;;;;;1.20;0.60;;;9.20;99.90;;;;;;5033250;28;20696;-36
2023/03/13 08:51:17;;;;;;;1.15;0.82;;;9.20;99.90;;;;;;5033749;28;20063;-40
2023/03/13 08:53:43;;;;;;;1.67;0.60;;;9.20;99.90;;;;;;5034360;28;20025;-45
2023/03/13 08:56:11;;;;;;;1.42;0.75;;;9.20;99.90;;;;;;5034910;28;20612;-38
2023/03/13 08:58:37;;;;;;;1.40;0.70;;;9.20;99.90;;;;;;5035157;28;20095;-36
2023/03/13 09:01:13;;;;;;;1.73;0.80;;;9.20;99.90;;;;;;5033313;28;20048;-42
2023/03/13 09:03:40;;;;;;;1.35;0.73;;;9.20;99.90;;;;;;5032954;28;20044;-36
2023/03/13 09:06:06;;;;;;;1.67;0.85;;;9.20;99.90;;;;;;5032631;28;20108;-35
2023/03/13 09:08:33;;;;;;;1.60;0.68;;;9.20;99.90;;;;;;5032920;28;20036;-40
2023/03/13 09:11:04;;;;;;;0.98;0.52;;;9.20;99.90;;;;;;5032808;28;20077;-36
2023/03/13 09:13:31;;;;;;;0.95;0.70;;;9.20;99.90;;;;;;5032978;28;20479;-36
2023/03/13 09:16:03;;;;;;;1.30;0.68;;;9.20;99.90;;;;;;5032547;28;20032;-39
2023/03/13 09:18:29;;;;;;;1.33;0.80;;;9.20;99.90;;;;;;5032670;28;20040;-41
2023/03/13 09:20:54;;;;;;;2.13;0.90;;;9.20;99.90;;;;;;5032666;28;20056;-36
2023/03/13 09:23:21;;;;;;;1.50;0.85;;;9.20;99.90;;;;;;5033565;28;20475;-36
2023/03/13 09:25:55;;;;;;;3.55;0.60;;;9.20;99.90;;;;;;5033588;28;20459;-45
2023/03/13 09:28:20;;;;;;;1.00;0.60;;;9.20;99.90;;;;;;5032499;28;20026;-40
2023/03/13 09:30:48;;;;;;;1.38;0.60;;;9.30;99.90;;;;;;5032627;28;20025;-42
2023/03/13 09:33:15;;;;;;;1.00;0.63;;;9.30;99.90;;;;;;5032431;28;20041;-36
2023/03/13 09:35:40;;;;;;;0.80;0.70;;;9.30;99.90;;;;;;5032283;28;20387;-39
2023/03/13 09:38:06;;;;;;;1.75;0.70;;;9.20;99.90;;;;;;5032589;28;20025;-36
2023/03/13 09:40:44;;;;;;;1.50;0.63;;;9.30;99.90;;;;;;5032275;28;20029;-40
2023/03/13 09:43:37;;;;;;;1.10;0.60;;;9.20;99.90;;;;;;5032274;28;20045;-40
2023/03/13 09:46:10;;;;;;;1.10;0.60;;;9.20;99.90;;;;;;5033167;28;20029;-36
2023/03/13 09:48:44;;;;;;;1.85;0.68;;;9.30;99.90;;;;;;5034278;28;20029;-36
2023/03/13 09:51:14;;;;;;;;;;;9.30;99.90;;;;;;5033243;28;20049;-39
2023/03/13 09:53:41;;;;;;;1.63;0.68;;;9.30;99.90;;;;;;5032865;28;19909;-36
2023/03/13 09:56:15;;;;;;;1.73;0.70;;;9.40;99.90;;;;;;5032251;28;20056;-36
2023/03/13 09:58:58;;;;;;;0.63;0.50;;;9.40;99.90;;;;;;5032150;28;20037;-36
2023/03/13 10:01:30;;;;;;;0.73;0.50;;;9.40;99.90;;;;;;5031810;28;20030;-36
2023/03/13 10:04:27;;;;;;;1.48;0.70;;;9.40;99.90;;;;;;5031866;28;20129;-38
2023/03/13 10:06:53;;;;;;;1.88;0.68;;;9.40;99.90;;;;;;5031629;28;20029;-38
2023/03/13 10:09:25;;;;;;;1.20;0.68;;;9.40;99.90;;;;;;5031964;28;20064;-36
2023/03/13 10:11:54;;;;;;;3.10;0.90;;;9.50;99.90;;;;;;5030653;28;20029;-36
2023/03/13 10:14:27;;;;;;;0.65;0.63;;;9.50;99.90;;;;;;5031743;28;20426;-36
2023/03/13 10:16:56;;;;;;;2.63;0.50;;;9.60;99.90;;;;;;5031529;28;20032;-39
2023/03/13 10:19:31;;;;;;;0.90;0.60;;;9.60;99.90;;;;;;5032833;28;20030;-39
2023/03/13 10:22:01;;;;;;;1.17;0.60;;;9.60;99.90;;;;;;5036969;28;20034;-38
2023/03/13 10:24:36;;;;;;;2.58;1.10;;;9.60;99.90;;;;;;5033989;28;20041;-37
2023/03/13 10:27:02;;;;;;;6.25;1.02;;;9.70;99.90;;;;;;5031662;28;20068;-35
2023/03/13 10:29:30;;;;;;;2.17;1.08;;;9.80;99.90;;;;;;5033799;28;20025;-35
2023/03/13 10:31:58;;;;;;;2.55;1.00;;;9.90;99.90;;;;;;5032019;28;20052;-36
2023/03/13 10:34:26;;;;;;;2.13;1.00;;;10.00;99.90;;;;;;5031363;28;20104;-35
2023/03/13 10:37:00;;;;;;;2.90;0.80;;;10.00;99.90;;;;;;5031398;28;20022;-36
2023/03/13 10:39:28;;;;;;;2.10;0.88;;;10.00;99.90;;;;;;5031709;28;20021;-35
2023/03/13 10:42:10;;;;;;;3.63;0.90;;;10.10;99.90;;;;;;5031417;28;20104;-35
2023/03/13 10:44:36;;;;;;;2.08;0.90;;;10.10;99.90;;;;;;5031166;28;20026;-35
2023/03/13 10:47:03;;;;;;;1.75;0.80;;;10.10;99.90;;;;;;5030921;28;20029;-34
2023/03/13 10:49:31;;;;;;;1.30;0.85;;;10.20;99.90;;;;;;5031264;28;20475;-35
2023/03/13 10:52:02;;;;;;;5.32;1.23;;;10.20;99.90;;;;;;5031134;28;20018;-35
2023/03/13 10:54:38;;;;;;;2.55;0.93;;;10.20;99.90;;;;;;5031293;28;20120;-35
2023/03/13 10:57:15;;;;;;;1.60;0.90;;;10.30;99.90;;;;;;5033347;28;20029;-35
2023/03/13 10:59:46;;;;;;;1.73;0.85;;;10.30;99.90;;;;;;5035350;28;20472;-35
2023/03/13 11:02:22;;;;;;;5.70;1.20;;;10.30;99.90;;;;;;5035176;28;20041;-35
2023/03/13 11:04:55;;;;;;;1.90;0.82;;;10.30;99.90;;;;;;5035171;28;20021;-35
2023/03/13 11:07:31;;;;;;;3.08;1.10;;;10.30;99.90;;;;;;5033668;28;20041;-35
2023/03/13 11:10:20;;;;;;;3.03;0.80;;;10.30;99.90;;;;;;5035171;28;20029;-35
2023/03/13 11:12:56;;;;;;;2.28;0.93;;;10.30;99.90;;;;;;5031823;28;20038;-35
2023/03/13 11:15:47;;;;;;;1.65;1.00;;;10.30;99.90;;;;;;5035094;28;20040;-35
2023/03/13 11:18:21;;;;;;;3.50;0.90;;;10.30;99.90;;;;;;5034995;28;20368;-35
2023/03/13 11:20:47;;;;;;;;;;;10.30;99.90;;;;;;5035483;28;20036;-35
2023/03/13 11:23:21;;;;;;;2.08;1.10;;;10.30;99.90;;;;;;5034900;28;19905;-35
2023/03/13 11:25:46;;;;;;;3.17;1.00;;;10.30;99.90;;;;;;5034731;28;20083;-35
2023/03/13 11:28:27;;;;;;;1.65;0.82;;;10.40;99.90;;;;;;5034675;28;20018;-35
2023/03/13 11:31:06;;;;;;;2.05;1.00;;;10.30;99.90;;;;;;5034469;28;20026;-35
2023/03/13 11:33:46;;;;;;;5.22;0.90;;;10.40;99.90;;;;;;5035084;28;20021;-34
2023/03/13 11:36:34;;;;;;;2.60;1.35;;;10.40;99.90;;;;;;5035878;28;20021;-36
2023/03/13 11:39:11;;;;;;;5.90;1.13;;;10.50;99.90;;;;;;5034707;28;20104;-34
2023/03/13 11:41:56;;;;;;;4.20;1.23;;;10.60;99.90;;;;;;5034701;28;20025;-35
2023/03/13 11:44:30;;;;;;;3.25;1.30;;;10.60;99.90;;;;;;5034926;28;20034;-35
2023/03/13 11:47:14;;;;;;;3.30;1.08;;;10.60;99.90;;;;;;5034634;28;20032;-34
2023/03/13 11:49:49;;;;;;;;;;;10.70;99.90;;;;;;5035113;28;20557;-34
2023/03/13 11:52:39;;;;;;;6.22;1.25;;;10.70;99.90;;;;;;5035139;28;20286;-37
2023/03/13 11:55:32;;;;;;;2.22;1.02;;;10.70;99.90;;;;;;5034327;28;20025;-42
2023/03/13 11:58:24;;;;;;;1.58;1.20;;;10.70;99.90;;;;;;5034141;28;20021;-36
2023/03/13 12:01:01;;;;;;;1.20;0.90;;;10.70;99.90;;;;;;5034099;28;20033;-34
2023/03/13 12:04:13;;;;;;;2.17;1.00;;;10.80;99.90;;;;;;5034100;28;20539;-34
2023/03/13 12:06:49;;;;;;;1.90;1.02;;;10.80;99.90;;;;;;5011842;28;20034;-34
2023/03/13 12:09:20;;;;;;;3.15;1.00;;;10.80;99.90;;;;;;5012302;28;20059;-40
2023/03/13 12:12:02;;;;;;;3.95;0.93;;;10.80;99.90;;;;;;5024437;28;20091;-34
2023/03/13 12:14:42;;;;;;;4.28;1.35;;;10.80;99.90;;;;;;5034321;28;20033;-40
2023/03/13 12:17:25;;;;;;;2.78;0.93;;;10.80;99.90;;;;;;5033837;28;20460;-34
2023/03/13 12:20:09;;;;;;;2.22;0.90;;;10.80;99.90;;;;;;5034010;28;20053;-36
2023/03/13 12:22:47;;;;;;;1.50;0.97;;;10.80;99.90;;;;;;5034631;28;20452;-35
2023/03/13 12:25:22;;;;;;;1.50;1.08;;;10.80;99.90;;;;;;5034031;28;20045;-36
2023/03/13 12:28:11;;;;;;;2.08;0.80;;;10.80;99.90;;;;;;5035119;28;20276;-35
2023/03/13 12:30:47;;;;;;;2.30;1.00;;;10.80;99.90;;;;;;5033821;28;20028;-36
2023/03/13 12:33:28;;;;;;;3.20;0.82;;;10.80;99.90;;;;;;5034918;28;20149;-35
2023/03/13 12:36:28;;;;;;;2.15;0.90;;;10.80;99.90;;;;;;5049339;28;20119;-35
2023/03/13 12:39:00;;;;;;;3.10;1.10;;;10.80;99.90;;;;;;5032124;28;20061;-40
2023/03/13 12:41:32;;;;;;;2.83;0.88;;;10.80;99.90;;;;;;5033912;28;20021;-35
2023/03/13 12:43:58;;;;;;;1.40;0.82;;;10.80;99.90;;;;;;5033416;28;20048;-43
2023/03/13 12:46:51;;;;;;;1.23;0.60;;;10.80;99.90;;;;;;5033093;28;20767;-35
2023/03/13 12:49:26;;;;;;;1.20;0.70;;;10.80;99.90;;;;;;5033740;28;20109;-35
2023/03/13 12:52:10;;;;;;;2.30;0.82;;;10.80;99.90;;;;;;5033868;28;20028;-36
2023/03/13 12:54:54;;;;;;;0.80;0.70;;;10.80;99.90;;;;;;5033316;28;20025;-34
2023/03/13 12:57:20;;;;;;;;;;;10.80;99.90;;;;;;5033486;28;20052;-38
2023/03/13 13:00:01;;;;;;;1.10;0.70;;;10.80;99.90;;;;;;5033145;28;19905;-36
2023/03/13 13:02:29;;;;;;;1.17;0.77;;;10.80;99.90;;;;;;5033408;28;20025;-36
2023/03/13 13:04:58;;;;;;;1.23;0.63;;;10.80;99.90;;;;;;5033460;28;20025;-43
2023/03/13 13:07:28;;;;;;;1.90;0.80;;;10.80;99.90;;;;;;5033462;28;20165;-35